WICT2: Wichita River At Wichita Falls, TX

                                SHEF ID:       WICT2     Wichita Rv at Wichita Falls, TX
STATION TYPE:
Regulating: Stage = 18.50, Flow = 5482

PRECIP STAGE RIV-FLOW WTR-TEMP CONDUCT BAT-LOAD
in ft cfs F umho/cm volt
Ccp-Rev Ccp-Rev Ccp-Rev Ccp-Rev Ccp-Rev Ccp-Rev
(America/Chicago)
07/17 00:00 ---- 2.26 42 82.65 3887 11.98
07/17 01:00 ---- 2.26 42 82.33 3996 11.96
07/17 02:00 ---- 2.26 42 81.97 4012 11.92
07/17 03:00 ---- 2.27 43 81.63 3957 11.85
07/17 04:00 ---- 2.36 51 81.01 3840 11.88
07/17 05:00 ---- 2.38 53 80.38 3725 11.88
07/17 06:00 ---- 2.39 54 79.92 3658 11.87
07/17 07:00 ---- 2.42 57 79.56 3993 11.85
07/17 08:00 ---- 2.44 59 78.91 3872 11.83
07/17 09:00 ---- 2.47 62 78.10 3123 11.85
07/17 10:00 ---- 2.46 61 78.19 2923 12.06
07/17 11:00 ---- 2.44 59 78.91 3216 12.50
07/17 12:00 ---- 2.44 59 80.10 3365 12.88
07/17 13:00 ---- 2.45 60 81.52 3214 12.64
07/17 14:00 ---- 2.50 66 82.53 3194 12.44
07/17 15:00 ---- 2.57 73 83.86 3532 12.40
07/17 16:00 ---- 2.62 79 84.27 3697 12.31
07/17 17:00 ---- 2.63 80 85.53 3793 12.31
07/17 18:00 ---- 2.64 81 85.78 3802 12.12
07/17 19:00 ---- 2.63 80 85.41 3682 12.12
07/17 20:00 ---- 2.62 79 85.08 3598 12.05
07/17 21:00 ---- 2.59 75 84.56 3546 12.04
07/17 22:00 ---- 2.58 74 83.84 3479 12.03
07/17 23:00 ---- 2.57 73 83.37 3438 12.01
Data processed at Sat 18Jul2026 04:58 GMT

NOTICE: If you are parsing this page

Please convert to using our Data API. Starting early 2026 we will be migrating to: https://water.usace.army.mil with modern pages rendered in JavaScript. When this migration completes you will no longer be able to scrape this page! CWMSDataAPI (CDA)

Timeseries IDs (TSIDs)

TSIDs used from left to right in the data table
WFAL.Precip-Inc.Total.1Hour.1Hour.Ccp-Rev
WFAL.Stage.Inst.1Hour.0.Ccp-Rev
WFAL.Flow.Inst.1Hour.0.Ccp-Rev
WFAL.Temp-Water.Inst.1Hour.0.Ccp-Rev
WFAL.Cond-Water.Inst.1Hour.0.Ccp-Rev
WFAL.Volt-Battery Load.Inst.1Hour.0.Ccp-Rev

                            

All information presented herein is the property of the government of the United States of America and may be revised or deleted at any time without prior notice. Dissemination of this information without the expressed written consent of the Public Affairs Office, Tulsa District U.S. Army Corps of Engineers is strictly prohibited. These data are gathered electronically and, as presented, have NOT undergone any form of quality control. These data are NOT guaranteed to be valid or correct.